createdAt,value
2023-05-02T00:00:29.357Z,24.47
2023-05-02T00:02:56.083Z,24.17
2023-05-02T00:05:23.002Z,22.60
2023-05-02T00:07:51.392Z,22.58
2023-05-02T00:10:18.522Z,24.95
2023-05-02T00:12:45.166Z,19.87
2023-05-02T00:15:11.717Z,21.75
2023-05-02T00:17:40.494Z,21.63
2023-05-02T00:20:09.435Z,23.75
2023-05-02T00:22:36.120Z,20.48
2023-05-02T00:25:02.673Z,19.13
2023-05-02T00:27:30.635Z,20.52
2023-05-02T00:29:58.546Z,19.45
2023-05-02T00:32:26.039Z,18.10
2023-05-02T00:34:53.061Z,18.83
2023-05-02T00:37:19.907Z,18.20
2023-05-02T00:39:46.404Z,16.52
2023-05-02T00:42:13.040Z,19.73
2023-05-02T00:44:40.519Z,19.83
2023-05-02T00:47:07.089Z,19.15
2023-05-02T00:49:33.720Z,16.83
2023-05-02T00:52:00.617Z,17.77
2023-05-02T00:54:27.150Z,18.55
2023-05-02T00:56:53.788Z,20.13
2023-05-02T00:59:20.473Z,19.67
2023-05-02T01:02:13.481Z,21.70
2023-05-02T01:05:03.066Z,20.17
2023-05-02T01:07:56.931Z,19.83
2023-05-02T01:10:39.064Z,22.15
2023-05-02T01:13:17.637Z,22.70
2023-05-02T01:15:45.413Z,22.30
2023-05-02T01:18:15.548Z,22.83
2023-05-02T01:20:44.737Z,23.17
2023-05-02T01:23:25.864Z,19.30
2023-05-02T01:26:17.976Z,22.50
2023-05-02T01:28:58.898Z,24.03
2023-05-02T01:31:27.813Z,20.10
2023-05-02T01:33:56.725Z,18.30
2023-05-02T01:36:26.998Z,20.60
2023-05-02T01:38:55.757Z,17.00
2023-05-02T01:41:26.218Z,19.80
2023-05-02T01:43:55.845Z,16.30
2023-05-02T01:46:22.485Z,13.90
2023-05-02T01:48:52.409Z,13.20
2023-05-02T01:51:21.506Z,16.67
2023-05-02T01:53:50.354Z,14.53
2023-05-02T01:56:18.760Z,15.80
2023-05-02T01:58:47.643Z,11.45
2023-05-02T02:01:16.350Z,13.60
2023-05-02T02:03:43.441Z,12.40
2023-05-02T02:06:11.516Z,11.13
2023-05-02T02:08:38.683Z,11.20
2023-05-02T02:11:10.722Z,12.05
2023-05-02T02:13:45.052Z,10.10
2023-05-02T02:16:14.181Z,10.18
2023-05-02T02:18:44.737Z,8.73
2023-05-02T02:21:11.986Z,12.00
2023-05-02T02:23:39.890Z,9.43
2023-05-02T02:26:07.597Z,8.70
2023-05-02T02:28:34.635Z,9.10
2023-05-02T02:31:01.413Z,9.40
2023-05-02T02:33:31.276Z,8.20
2023-05-02T02:36:13.231Z,5.95
2023-05-02T02:39:02.860Z,10.18
2023-05-02T02:41:39.787Z,8.50
2023-05-02T02:44:20.183Z,8.13
2023-05-02T02:47:34.878Z,7.40
2023-05-02T02:50:07.508Z,8.95
2023-05-02T02:52:53.921Z,12.10
2023-05-02T02:55:34.397Z,7.70
2023-05-02T02:58:08.852Z,8.83
2023-05-02T03:00:35.719Z,6.47
2023-05-02T03:03:02.370Z,6.85
2023-05-02T03:05:29.636Z,6.25
2023-05-02T03:07:58.955Z,9.02
2023-05-02T03:10:25.490Z,6.70
2023-05-02T03:12:55.577Z,7.70
2023-05-02T03:15:26.374Z,6.72
2023-05-02T03:17:53.083Z,9.88
2023-05-02T03:20:19.716Z,6.50
2023-05-02T03:22:46.355Z,5.13
2023-05-02T03:25:13.024Z,5.78
2023-05-02T03:27:43.643Z,5.57
2023-05-02T03:30:11.560Z,5.80
2023-05-02T03:32:38.205Z,6.18
2023-05-02T03:35:05.798Z,6.70
2023-05-02T03:37:39.043Z,7.60
2023-05-02T03:40:06.376Z,4.88
2023-05-02T03:42:39.851Z,8.57
2023-05-02T03:45:10.960Z,5.45
2023-05-02T03:47:37.583Z,5.93
2023-05-02T03:50:04.414Z,8.93
2023-05-02T03:52:33.976Z,12.07
2023-05-02T03:55:01.567Z,9.45
2023-05-02T03:57:32.431Z,11.35
2023-05-02T04:00:00.666Z,11.20
2023-05-02T04:02:38.505Z,14.85
2023-05-02T04:05:08.697Z,18.80
2023-05-02T04:07:36.802Z,9.00
2023-05-02T04:10:06.968Z,11.05
2023-05-02T04:12:39.041Z,11.23
2023-05-02T04:15:06.918Z,12.43
2023-05-02T04:17:33.894Z,13.68
2023-05-02T04:20:03.164Z,11.32
2023-05-02T04:22:33.287Z,11.43
2023-05-02T04:25:03.409Z,10.70
2023-05-02T04:27:31.766Z,9.20
2023-05-02T04:29:59.424Z,13.38
2023-05-02T04:32:27.051Z,15.32
2023-05-02T04:34:54.922Z,12.45
2023-05-02T04:37:23.064Z,10.97
2023-05-02T04:39:50.050Z,10.90
2023-05-02T04:42:23.885Z,11.25
2023-05-02T04:45:09.120Z,10.25
2023-05-02T04:47:35.731Z,12.73
2023-05-02T04:50:02.573Z,17.43
2023-05-02T04:52:30.238Z,13.30
2023-05-02T04:54:57.120Z,13.43
2023-05-02T04:57:23.874Z,16.17
2023-05-02T04:59:55.365Z,14.77
2023-05-02T05:02:21.959Z,14.10
2023-05-02T05:04:49.172Z,10.98
2023-05-02T05:07:16.613Z,13.65
2023-05-02T05:09:45.817Z,14.65
2023-05-02T05:12:12.379Z,14.02
2023-05-02T05:14:38.957Z,13.83
2023-05-02T05:17:06.032Z,13.38
2023-05-02T05:19:33.028Z,17.23
2023-05-02T05:21:59.556Z,15.10
2023-05-02T05:24:26.252Z,14.05
2023-05-02T05:26:55.497Z,13.00
2023-05-02T05:29:22.374Z,14.50
2023-05-02T05:31:48.984Z,15.00
2023-05-02T05:34:18.228Z,9.00
2023-05-02T05:36:48.147Z,11.77
2023-05-02T05:39:15.445Z,12.70
2023-05-02T05:41:43.989Z,13.23
2023-05-02T05:44:13.718Z,16.90
2023-05-02T05:46:40.308Z,14.32
2023-05-02T05:49:09.484Z,16.75
2023-05-02T05:51:36.977Z,13.67
2023-05-02T05:54:03.809Z,12.45
2023-05-02T05:56:31.046Z,9.50
2023-05-02T05:59:05.388Z,15.98
2023-05-02T06:01:32.141Z,17.05
2023-05-02T06:03:59.237Z,12.33
2023-05-02T06:06:27.442Z,14.60
2023-05-02T06:08:54.284Z,12.57
2023-05-02T06:11:21.096Z,14.90
2023-05-02T06:13:47.608Z,14.60
2023-05-02T06:16:14.492Z,11.07
2023-05-02T06:18:41.256Z,8.43
2023-05-02T06:21:07.818Z,12.50
2023-05-02T06:23:35.692Z,13.35
2023-05-02T06:26:04.058Z,13.18
2023-05-02T06:28:31.420Z,10.37
2023-05-02T06:31:03.010Z,11.25
2023-05-02T06:33:30.348Z,9.07
2023-05-02T06:35:59.186Z,8.82
2023-05-02T06:38:27.360Z,10.88
2023-05-02T06:40:56.482Z,11.53
2023-05-02T06:43:23.657Z,7.90
2023-05-02T06:45:54.323Z,10.15
2023-05-02T06:48:21.672Z,10.05
2023-05-02T06:50:49.131Z,9.10
2023-05-02T06:53:16.353Z,8.03
2023-05-02T06:55:44.089Z,8.43
2023-05-02T06:58:10.853Z,5.40
2023-05-02T07:00:37.411Z,7.07
2023-05-02T07:03:04.037Z,8.60
2023-05-02T07:05:31.173Z,8.07
2023-05-02T07:07:57.649Z,10.75
2023-05-02T07:10:24.130Z,8.00
2023-05-02T07:12:50.598Z,6.97
2023-05-02T07:15:17.383Z,7.47
2023-05-02T07:17:44.116Z,8.20
2023-05-02T07:20:11.675Z,4.25
2023-05-02T07:22:38.360Z,10.18
2023-05-02T07:25:05.247Z,9.23
2023-05-02T07:27:31.714Z,6.13
2023-05-02T07:29:58.465Z,8.20
2023-05-02T07:32:26.689Z,10.20
2023-05-02T07:34:54.366Z,7.20
2023-05-02T07:37:21.322Z,7.00
2023-05-02T07:39:47.860Z,8.43
2023-05-02T07:42:14.588Z,7.23
2023-05-02T07:44:41.510Z,5.63
2023-05-02T07:47:08.838Z,6.53
2023-05-02T07:49:36.805Z,4.35
2023-05-02T07:52:04.384Z,7.55
2023-05-02T07:54:30.979Z,8.00
2023-05-02T07:57:02.047Z,5.47
2023-05-02T07:59:29.798Z,10.30
2023-05-02T08:01:56.330Z,8.13
2023-05-02T08:04:22.894Z,10.70
2023-05-02T08:06:49.834Z,5.23
2023-05-02T08:09:16.543Z,7.00
2023-05-02T08:11:43.043Z,8.10
2023-05-02T08:14:09.506Z,8.18
2023-05-02T08:16:36.049Z,7.40
2023-05-02T08:19:02.699Z,4.20
2023-05-02T08:21:29.277Z,5.05
2023-05-02T08:23:58.636Z,7.85
2023-05-02T08:26:25.166Z,7.28
2023-05-02T08:28:52.237Z,5.60
2023-05-02T08:31:18.987Z,5.83
2023-05-02T08:33:46.014Z,5.85
2023-05-02T08:36:14.032Z,5.95
2023-05-02T08:38:41.966Z,6.07
2023-05-02T08:41:12.050Z,6.13
2023-05-02T08:43:39.788Z,6.20
2023-05-02T08:46:09.807Z,6.90
2023-05-02T08:48:37.135Z,5.15
2023-05-02T08:51:04.799Z,11.07
2023-05-02T08:53:35.222Z,6.03
2023-05-02T08:56:02.114Z,6.43
2023-05-02T08:58:30.569Z,6.97
2023-05-02T09:01:01.371Z,5.25
2023-05-02T09:03:34.609Z,5.32
2023-05-02T09:06:12.980Z,4.03
2023-05-02T09:08:40.675Z,8.27
2023-05-02T09:11:08.781Z,7.70
2023-05-02T09:13:49.529Z,4.57
2023-05-02T09:16:25.219Z,6.85
2023-05-02T09:18:54.197Z,7.50
2023-05-02T09:21:28.140Z,7.97
2023-05-02T09:23:56.919Z,7.32
2023-05-02T09:26:29.516Z,9.93
2023-05-02T09:28:59.227Z,8.48
2023-05-02T09:31:49.829Z,7.32
2023-05-02T09:34:18.273Z,7.13
2023-05-02T09:36:47.008Z,6.00
2023-05-02T09:39:15.964Z,6.85
2023-05-02T09:41:43.051Z,7.00
2023-05-02T09:44:15.064Z,6.05
2023-05-02T09:46:52.229Z,8.00
2023-05-02T09:49:19.655Z,7.45
2023-05-02T09:51:47.944Z,7.45
2023-05-02T09:54:15.288Z,7.85
2023-05-02T09:56:56.699Z,14.63
2023-05-02T09:59:24.276Z,9.43
2023-05-02T10:01:59.157Z,5.45
2023-05-02T10:04:26.806Z,9.52
2023-05-02T10:06:54.585Z,7.30
2023-05-02T10:09:22.115Z,9.60
2023-05-02T10:11:54.170Z,5.50
2023-05-02T10:14:22.588Z,11.27
2023-05-02T10:17:04.928Z,9.93
2023-05-02T10:19:44.535Z,10.10
2023-05-02T10:22:12.785Z,8.20
2023-05-02T10:24:41.117Z,8.37
2023-05-02T10:27:08.355Z,7.90
2023-05-02T10:29:36.024Z,7.63
2023-05-02T10:32:04.788Z,7.28
2023-05-02T10:34:33.788Z,8.82
2023-05-02T10:37:03.126Z,6.10
2023-05-02T10:39:30.244Z,7.53
2023-05-02T10:41:58.924Z,6.82
2023-05-02T10:44:35.479Z,7.97
2023-05-02T10:47:17.796Z,6.72
2023-05-02T10:50:01.438Z,6.67
2023-05-02T10:52:36.775Z,5.65
2023-05-02T10:55:23.375Z,8.07
2023-05-02T10:57:59.133Z,8.48
2023-05-02T11:00:30.078Z,9.38
2023-05-02T11:02:56.906Z,9.63
2023-05-02T11:05:24.611Z,7.68
2023-05-02T11:08:19.281Z,7.30
2023-05-02T11:10:47.282Z,6.82
2023-05-02T11:13:13.867Z,7.68
2023-05-02T11:15:40.310Z,11.23
2023-05-02T11:18:14.536Z,7.75
2023-05-02T11:20:43.150Z,5.38
2023-05-02T11:23:15.582Z,9.43
2023-05-02T11:25:44.064Z,8.50
2023-05-02T11:28:39.278Z,7.37
2023-05-02T11:31:07.338Z,12.68
2023-05-02T11:33:33.832Z,11.05
2023-05-02T11:36:00.509Z,11.60
2023-05-02T11:38:36.036Z,5.70
2023-05-02T11:41:04.233Z,8.40
2023-05-02T11:43:32.166Z,11.70
2023-05-02T11:46:00.693Z,7.38
2023-05-02T11:48:27.949Z,7.53
2023-05-02T11:51:02.300Z,12.90
2023-05-02T11:53:29.567Z,12.23
2023-05-02T11:55:58.398Z,7.90
2023-05-02T11:58:29.874Z,8.13
2023-05-02T12:00:57.301Z,7.60
2023-05-02T12:03:27.149Z,9.23
2023-05-02T12:05:54.017Z,10.80
2023-05-02T12:08:28.354Z,9.23
2023-05-02T12:10:56.451Z,5.78
2023-05-02T12:13:25.446Z,10.23
2023-05-02T12:15:53.508Z,11.43
2023-05-02T12:18:25.186Z,13.17
2023-05-02T12:20:53.135Z,7.03
2023-05-02T12:23:22.083Z,11.20
2023-05-02T12:25:49.230Z,9.23
2023-05-02T12:28:19.024Z,10.73
2023-05-02T12:30:48.491Z,6.57
2023-05-02T12:33:16.916Z,7.45
2023-05-02T12:35:45.439Z,7.22
2023-05-02T12:38:14.634Z,8.55
2023-05-02T12:40:57.646Z,6.95
2023-05-02T12:43:24.186Z,8.77
2023-05-02T12:45:53.678Z,8.90
2023-05-02T12:48:27.944Z,6.63
2023-05-02T12:50:55.329Z,5.60
2023-05-02T12:53:42.068Z,5.10
2023-05-02T12:56:10.306Z,7.13
2023-05-02T12:58:43.736Z,7.68
2023-05-02T13:01:10.676Z,7.55
2023-05-02T13:03:37.648Z,8.77
2023-05-02T13:06:04.397Z,8.98
2023-05-02T13:08:33.171Z,7.43
2023-05-02T13:11:00.075Z,6.85
2023-05-02T13:13:26.665Z,5.75
2023-05-02T13:15:53.176Z,6.90
2023-05-02T13:18:19.681Z,7.18
2023-05-02T13:20:46.244Z,3.93
2023-05-02T13:23:12.836Z,8.85
2023-05-02T13:25:39.384Z,8.18
2023-05-02T13:28:06.435Z,8.00
2023-05-02T13:30:33.043Z,11.38
2023-05-02T13:32:59.847Z,6.23
2023-05-02T13:35:26.368Z,6.45
2023-05-02T13:37:52.916Z,6.07
2023-05-02T13:40:19.442Z,5.35
2023-05-02T13:42:46.496Z,6.93
2023-05-02T13:45:13.112Z,7.97
2023-05-02T13:47:40.264Z,6.32
2023-05-02T13:50:08.515Z,8.05
2023-05-02T13:52:35.014Z,5.03
2023-05-02T13:55:01.545Z,6.68
2023-05-02T13:57:28.075Z,5.30
2023-05-02T13:59:54.650Z,6.32
2023-05-02T14:02:22.479Z,7.32
2023-05-02T14:04:49.049Z,5.43
2023-05-02T14:07:15.643Z,5.55
2023-05-02T14:09:42.230Z,6.47
2023-05-02T14:12:08.730Z,4.40
2023-05-02T14:14:37.509Z,5.97
2023-05-02T14:17:05.263Z,4.85
2023-05-02T14:19:32.316Z,5.15
2023-05-02T14:21:59.093Z,4.80
2023-05-02T14:24:25.742Z,4.30
2023-05-02T14:26:52.361Z,6.47
2023-05-02T14:29:19.896Z,6.55
2023-05-02T14:31:46.581Z,7.55
2023-05-02T14:34:13.370Z,5.10
2023-05-02T14:36:39.888Z,5.53
2023-05-02T14:39:06.430Z,6.55
2023-05-02T14:41:32.954Z,6.00
2023-05-02T14:43:59.429Z,4.03
2023-05-02T14:46:25.978Z,5.70
2023-05-02T14:48:52.565Z,7.35
2023-05-02T14:51:19.066Z,9.35
2023-05-02T14:53:47.951Z,6.13
2023-05-02T14:56:15.933Z,3.90
2023-05-02T14:58:42.797Z,3.70
2023-05-02T15:01:19.242Z,7.72
2023-05-02T15:04:04.119Z,5.47
2023-05-02T15:06:31.591Z,6.72
2023-05-02T15:08:58.422Z,4.65
2023-05-02T15:11:25.567Z,4.20
2023-05-02T15:13:52.058Z,5.50
2023-05-02T15:16:18.879Z,5.00
2023-05-02T15:18:45.542Z,5.57
2023-05-02T15:21:12.371Z,3.85
2023-05-02T15:23:38.859Z,4.63
2023-05-02T15:26:05.459Z,3.63
2023-05-02T15:28:31.977Z,3.80
2023-05-02T15:30:58.536Z,4.15
2023-05-02T15:33:25.021Z,3.85
2023-05-02T15:35:57.986Z,3.63
2023-05-02T15:38:24.989Z,8.30
2023-05-02T15:40:58.703Z,5.25
2023-05-02T15:43:25.639Z,7.35
2023-05-02T15:45:56.311Z,3.78
2023-05-02T15:48:24.591Z,3.50
2023-05-02T15:50:52.343Z,4.32
2023-05-02T15:53:20.738Z,5.28
2023-05-02T15:55:47.600Z,5.30
2023-05-02T15:58:14.467Z,3.33
2023-05-02T16:00:41.114Z,4.07
2023-05-02T16:03:07.797Z,4.00
2023-05-02T16:05:35.262Z,4.03
2023-05-02T16:08:01.972Z,5.00
2023-05-02T16:10:28.848Z,3.42
2023-05-02T16:12:55.504Z,3.53
2023-05-02T16:15:22.538Z,3.65
2023-05-02T16:17:49.674Z,5.28
2023-05-02T16:20:17.548Z,3.63
2023-05-02T16:22:46.276Z,4.53
2023-05-02T16:25:13.530Z,5.17
2023-05-02T16:27:40.983Z,4.72
2023-05-02T16:30:08.556Z,6.43
2023-05-02T16:32:37.207Z,4.78
2023-05-02T16:35:08.245Z,4.55
2023-05-02T16:37:35.281Z,5.30
2023-05-02T16:40:02.657Z,5.65
2023-05-02T16:42:29.846Z,5.35
2023-05-02T16:44:57.548Z,6.10
2023-05-02T16:47:24.227Z,5.40
2023-05-02T16:49:58.115Z,3.90
2023-05-02T16:52:25.395Z,5.13
2023-05-02T16:54:52.148Z,4.13
2023-05-02T16:57:19.904Z,3.65
2023-05-02T16:59:51.579Z,4.63
2023-05-02T17:02:20.013Z,4.87
2023-05-02T17:04:46.664Z,4.97
2023-05-02T17:07:13.227Z,4.97
2023-05-02T17:09:41.319Z,3.33
2023-05-02T17:12:11.890Z,4.90
2023-05-02T17:14:42.179Z,5.40
2023-05-02T17:17:09.701Z,5.70
2023-05-02T17:19:36.708Z,4.38
2023-05-02T17:22:04.999Z,4.57
2023-05-02T17:24:31.861Z,5.40
2023-05-02T17:26:58.530Z,2.77
2023-05-02T17:29:25.632Z,7.30
2023-05-02T17:31:52.254Z,4.53
2023-05-02T17:34:18.765Z,2.97
2023-05-02T17:36:46.306Z,5.80
2023-05-02T17:39:13.463Z,4.47
2023-05-02T17:41:40.242Z,5.07
2023-05-02T17:44:06.913Z,4.18
2023-05-02T17:46:33.731Z,3.22
2023-05-02T17:49:00.946Z,2.03
2023-05-02T17:51:27.932Z,4.33
2023-05-02T17:53:54.460Z,3.97
2023-05-02T17:56:21.036Z,4.50
2023-05-02T17:58:47.602Z,3.35
2023-05-02T18:01:14.308Z,4.20
2023-05-02T18:03:41.080Z,5.87
2023-05-02T18:06:07.990Z,2.90
2023-05-02T18:08:34.693Z,5.07
2023-05-02T18:11:02.073Z,4.72
2023-05-02T18:13:28.609Z,2.97
2023-05-02T18:15:59.207Z,2.97
2023-05-02T18:18:25.909Z,3.10
2023-05-02T18:20:52.489Z,3.72
2023-05-02T18:23:19.063Z,3.13
2023-05-02T18:25:45.660Z,3.65
2023-05-02T18:28:13.294Z,4.03
2023-05-02T18:30:40.094Z,1.90
2023-05-02T18:33:08.042Z,2.95
2023-05-02T18:35:35.433Z,4.07
2023-05-02T18:38:02.433Z,2.72
2023-05-02T18:40:29.008Z,3.17
2023-05-02T18:42:55.564Z,3.50
2023-05-02T18:45:22.087Z,2.40
2023-05-02T18:47:50.989Z,3.85
2023-05-02T18:50:18.163Z,2.63
2023-05-02T18:52:44.627Z,2.40
2023-05-02T18:55:11.436Z,3.95
2023-05-02T18:57:38.083Z,4.80
2023-05-02T19:00:06.390Z,3.63
2023-05-02T19:02:33.516Z,4.20
2023-05-02T19:05:00.742Z,3.83
2023-05-02T19:07:27.757Z,3.75
2023-05-02T19:09:54.334Z,6.68
2023-05-02T19:12:20.882Z,5.82
2023-05-02T19:14:50.275Z,6.85
2023-05-02T19:17:16.908Z,3.60
2023-05-02T19:19:43.488Z,2.22
2023-05-02T19:22:10.002Z,4.13
2023-05-02T19:24:36.582Z,4.15
2023-05-02T19:27:06.715Z,4.93
2023-05-02T19:29:34.141Z,2.93
2023-05-02T19:32:01.119Z,4.20
2023-05-02T19:34:28.233Z,4.38
2023-05-02T19:36:54.916Z,4.53
2023-05-02T19:39:21.408Z,4.13
2023-05-02T19:41:49.914Z,3.73
2023-05-02T19:44:17.930Z,6.88
2023-05-02T19:46:44.497Z,5.47
2023-05-02T19:49:11.102Z,5.43
2023-05-02T19:51:37.686Z,5.50
2023-05-02T19:54:04.534Z,5.17
2023-05-02T19:56:31.126Z,5.47
2023-05-02T19:58:58.618Z,4.38
2023-05-02T20:01:26.462Z,3.58
2023-05-02T20:03:53.279Z,3.00
2023-05-02T20:06:19.878Z,3.77
2023-05-02T20:08:46.543Z,3.67
2023-05-02T20:11:13.060Z,6.40
2023-05-02T20:13:39.614Z,4.30
2023-05-02T20:16:07.481Z,5.90
2023-05-02T20:18:34.073Z,5.33
2023-05-02T20:21:00.716Z,4.28
2023-05-02T20:23:27.238Z,3.20
2023-05-02T20:25:54.346Z,3.80
2023-05-02T20:28:20.865Z,2.78
2023-05-02T20:30:47.446Z,3.83
2023-05-02T20:33:16.709Z,6.28
2023-05-02T20:35:45.248Z,6.25
2023-05-02T20:38:12.039Z,3.13
2023-05-02T20:40:43.334Z,3.05
2023-05-02T20:43:10.102Z,4.63
2023-05-02T20:45:36.755Z,3.38
2023-05-02T20:48:03.555Z,4.38
2023-05-02T20:50:30.463Z,3.90
2023-05-02T20:52:57.273Z,4.07
2023-05-02T20:55:24.399Z,4.03
2023-05-02T20:57:52.881Z,5.55
2023-05-02T21:00:22.364Z,3.67
2023-05-02T21:02:49.113Z,4.82
2023-05-02T21:05:16.170Z,4.68
2023-05-02T21:07:42.791Z,2.90
2023-05-02T21:10:10.367Z,3.75
2023-05-02T21:12:36.877Z,5.75
2023-05-02T21:15:03.522Z,5.07
2023-05-02T21:17:30.003Z,5.80
2023-05-02T21:19:56.608Z,2.77
2023-05-02T21:22:23.253Z,3.08
2023-05-02T21:24:50.286Z,6.18
2023-05-02T21:27:16.935Z,3.58
2023-05-02T21:29:43.558Z,4.75
2023-05-02T21:32:10.351Z,3.63
2023-05-02T21:34:37.263Z,4.72
2023-05-02T21:37:04.062Z,3.47
2023-05-02T21:39:30.598Z,4.32
2023-05-02T21:41:57.175Z,4.95
2023-05-02T21:44:23.713Z,4.70
2023-05-02T21:46:51.023Z,3.83
2023-05-02T21:49:17.558Z,5.28
2023-05-02T21:51:44.257Z,6.43
2023-05-02T21:54:10.776Z,4.70
2023-05-02T21:56:37.594Z,5.03
2023-05-02T21:59:04.091Z,5.75
2023-05-02T22:01:30.815Z,4.57
2023-05-02T22:03:57.997Z,5.30
2023-05-02T22:06:25.115Z,4.65
2023-05-02T22:08:51.881Z,6.60
2023-05-02T22:11:18.417Z,5.35
2023-05-02T22:13:44.968Z,4.03
2023-05-02T22:16:11.554Z,4.20
2023-05-02T22:18:39.202Z,7.25
2023-05-02T22:21:08.012Z,8.30
2023-05-02T22:23:34.576Z,4.93
2023-05-02T22:26:01.116Z,5.75
2023-05-02T22:28:27.703Z,6.30
2023-05-02T22:30:54.822Z,4.72
2023-05-02T22:33:21.576Z,5.93
2023-05-02T22:35:48.099Z,5.50
2023-05-02T22:38:18.481Z,4.90
2023-05-02T22:40:45.037Z,4.30
2023-05-02T22:43:11.643Z,8.80
2023-05-02T22:45:38.365Z,8.57
2023-05-02T22:48:06.797Z,7.97
2023-05-02T22:50:33.815Z,4.53
2023-05-02T22:53:02.140Z,7.07
2023-05-02T22:55:28.638Z,6.00
2023-05-02T22:57:55.239Z,6.00
2023-05-02T23:00:23.403Z,7.68
2023-05-02T23:02:50.143Z,4.25
2023-05-02T23:05:16.796Z,4.63
2023-05-02T23:07:43.644Z,4.38
2023-05-02T23:10:10.362Z,6.23
2023-05-02T23:12:36.870Z,6.32
2023-05-02T23:15:03.717Z,6.40
2023-05-02T23:17:30.252Z,2.95
2023-05-02T23:19:57.350Z,6.70
2023-05-02T23:22:24.095Z,6.30
2023-05-02T23:24:50.657Z,3.67
2023-05-02T23:27:17.170Z,4.05
2023-05-02T23:29:43.696Z,4.03
2023-05-02T23:32:10.305Z,5.68
2023-05-02T23:34:37.124Z,6.67
2023-05-02T23:37:06.040Z,5.72
2023-05-02T23:39:33.370Z,7.10
2023-05-02T23:42:00.639Z,4.40
2023-05-02T23:44:27.188Z,6.20
2023-05-02T23:46:53.769Z,5.13
2023-05-02T23:49:21.523Z,5.22
2023-05-02T23:51:48.188Z,5.57
2023-05-02T23:54:14.750Z,4.55
2023-05-02T23:56:41.260Z,3.95
2023-05-02T23:59:07.730Z,4.77
